sensor_id;sensor_type;location;lat;lon;timestamp;P1;durP1;ratioP1;P2;durP2;ratioP2
19386;SDS011;9829;48.142;16.382;2022-07-25T00:01:17;5.63;;;5.13;;
19386;SDS011;9829;48.142;16.382;2022-07-25T00:03:44;6.18;;;5.55;;
19386;SDS011;9829;48.142;16.382;2022-07-25T00:06:12;6.90;;;6.18;;
19386;SDS011;9829;48.142;16.382;2022-07-25T00:08:39;9.93;;;6.03;;
19386;SDS011;9829;48.142;16.382;2022-07-25T00:11:06;5.88;;;5.30;;
19386;SDS011;9829;48.142;16.382;2022-07-25T00:13:32;5.65;;;5.15;;
19386;SDS011;9829;48.142;16.382;2022-07-25T00:15:59;6.18;;;5.57;;
19386;SDS011;9829;48.142;16.382;2022-07-25T00:18:26;9.63;;;6.45;;
19386;SDS011;9829;48.142;16.382;2022-07-25T00:20:53;7.40;;;6.70;;
19386;SDS011;9829;48.142;16.382;2022-07-25T00:23:21;8.77;;;6.97;;
19386;SDS011;9829;48.142;16.382;2022-07-25T00:25:48;6.55;;;6.05;;
19386;SDS011;9829;48.142;16.382;2022-07-25T00:28:15;7.97;;;6.60;;
19386;SDS011;9829;48.142;16.382;2022-07-25T00:30:42;8.20;;;6.18;;
19386;SDS011;9829;48.142;16.382;2022-07-25T00:33:09;9.15;;;6.15;;
19386;SDS011;9829;48.142;16.382;2022-07-25T00:35:36;12.02;;;6.07;;
19386;SDS011;9829;48.142;16.382;2022-07-25T00:38:03;11.57;;;5.97;;
19386;SDS011;9829;48.142;16.382;2022-07-25T00:40:31;7.78;;;5.85;;
19386;SDS011;9829;48.142;16.382;2022-07-25T00:42:58;8.45;;;5.65;;
19386;SDS011;9829;48.142;16.382;2022-07-25T00:45:25;8.52;;;5.95;;
19386;SDS011;9829;48.142;16.382;2022-07-25T00:47:52;11.35;;;6.40;;
19386;SDS011;9829;48.142;16.382;2022-07-25T00:50:18;6.68;;;5.60;;
19386;SDS011;9829;48.142;16.382;2022-07-25T00:52:45;6.38;;;5.78;;
19386;SDS011;9829;48.142;16.382;2022-07-25T00:55:13;6.75;;;6.15;;
19386;SDS011;9829;48.142;16.382;2022-07-25T00:57:42;7.88;;;6.10;;
19386;SDS011;9829;48.142;16.382;2022-07-25T01:00:10;12.20;;;6.15;;
19386;SDS011;9829;48.142;16.382;2022-07-25T01:02:39;10.85;;;5.82;;
19386;SDS011;9829;48.142;16.382;2022-07-25T01:05:07;13.40;;;6.72;;
19386;SDS011;9829;48.142;16.382;2022-07-25T01:07:35;7.72;;;6.25;;
19386;SDS011;9829;48.142;16.382;2022-07-25T01:10:03;6.90;;;5.82;;
19386;SDS011;9829;48.142;16.382;2022-07-25T01:12:31;6.50;;;5.97;;
19386;SDS011;9829;48.142;16.382;2022-07-25T01:14:59;10.63;;;5.93;;
19386;SDS011;9829;48.142;16.382;2022-07-25T01:17:26;9.48;;;5.75;;
19386;SDS011;9829;48.142;16.382;2022-07-25T01:19:53;6.70;;;5.97;;
19386;SDS011;9829;48.142;16.382;2022-07-25T01:22:21;12.13;;;6.10;;
19386;SDS011;9829;48.142;16.382;2022-07-25T01:24:48;6.70;;;6.10;;
19386;SDS011;9829;48.142;16.382;2022-07-25T01:27:15;8.68;;;6.60;;
19386;SDS011;9829;48.142;16.382;2022-07-25T01:29:41;6.78;;;6.28;;
19386;SDS011;9829;48.142;16.382;2022-07-25T01:32:10;7.03;;;6.30;;
19386;SDS011;9829;48.142;16.382;2022-07-25T01:34:37;7.40;;;6.65;;
19386;SDS011;9829;48.142;16.382;2022-07-25T01:37:04;9.18;;;6.53;;
19386;SDS011;9829;48.142;16.382;2022-07-25T01:39:32;7.93;;;6.18;;
19386;SDS011;9829;48.142;16.382;2022-07-25T01:41:59;13.63;;;7.15;;
19386;SDS011;9829;48.142;16.382;2022-07-25T01:44:26;9.63;;;6.63;;
19386;SDS011;9829;48.142;16.382;2022-07-25T01:46:53;8.82;;;6.65;;
19386;SDS011;9829;48.142;16.382;2022-07-25T01:49:20;8.80;;;6.85;;
19386;SDS011;9829;48.142;16.382;2022-07-25T01:51:46;11.63;;;7.13;;
19386;SDS011;9829;48.142;16.382;2022-07-25T01:54:13;7.28;;;6.50;;
19386;SDS011;9829;48.142;16.382;2022-07-25T01:56:43;7.10;;;6.55;;
19386;SDS011;9829;48.142;16.382;2022-07-25T01:59:10;7.28;;;6.68;;
19386;SDS011;9829;48.142;16.382;2022-07-25T02:01:37;6.82;;;6.30;;
19386;SDS011;9829;48.142;16.382;2022-07-25T02:04:04;7.28;;;6.60;;
19386;SDS011;9829;48.142;16.382;2022-07-25T02:06:31;8.40;;;6.57;;
19386;SDS011;9829;48.142;16.382;2022-07-25T02:08:59;7.13;;;6.10;;
19386;SDS011;9829;48.142;16.382;2022-07-25T02:11:26;7.90;;;6.72;;
19386;SDS011;9829;48.142;16.382;2022-07-25T02:13:54;9.70;;;7.28;;
19386;SDS011;9829;48.142;16.382;2022-07-25T02:16:21;8.70;;;7.55;;
19386;SDS011;9829;48.142;16.382;2022-07-25T02:18:48;9.68;;;7.43;;
19386;SDS011;9829;48.142;16.382;2022-07-25T02:21:15;8.60;;;6.80;;
19386;SDS011;9829;48.142;16.382;2022-07-25T02:23:42;7.95;;;7.15;;
19386;SDS011;9829;48.142;16.382;2022-07-25T02:26:09;7.60;;;6.97;;
19386;SDS011;9829;48.142;16.382;2022-07-25T02:28:36;8.32;;;7.53;;
19386;SDS011;9829;48.142;16.382;2022-07-25T02:31:04;7.88;;;7.22;;
19386;SDS011;9829;48.142;16.382;2022-07-25T02:33:31;8.05;;;7.25;;
19386;SDS011;9829;48.142;16.382;2022-07-25T02:35:58;9.60;;;6.53;;
19386;SDS011;9829;48.142;16.382;2022-07-25T02:38:25;8.70;;;6.55;;
19386;SDS011;9829;48.142;16.382;2022-07-25T02:40:52;8.63;;;7.00;;
19386;SDS011;9829;48.142;16.382;2022-07-25T02:43:19;6.95;;;6.20;;
19386;SDS011;9829;48.142;16.382;2022-07-25T02:45:46;8.65;;;6.22;;
19386;SDS011;9829;48.142;16.382;2022-07-25T02:48:14;8.18;;;6.20;;
19386;SDS011;9829;48.142;16.382;2022-07-25T02:50:41;7.03;;;6.40;;
19386;SDS011;9829;48.142;16.382;2022-07-25T02:53:08;7.20;;;6.45;;
19386;SDS011;9829;48.142;16.382;2022-07-25T02:55:35;7.03;;;6.43;;
19386;SDS011;9829;48.142;16.382;2022-07-25T02:58:02;9.80;;;6.40;;
19386;SDS011;9829;48.142;16.382;2022-07-25T03:00:29;6.65;;;6.15;;
19386;SDS011;9829;48.142;16.382;2022-07-25T03:02:56;7.32;;;6.65;;
19386;SDS011;9829;48.142;16.382;2022-07-25T03:05:24;9.07;;;6.80;;
19386;SDS011;9829;48.142;16.382;2022-07-25T03:07:51;7.30;;;6.70;;
19386;SDS011;9829;48.142;16.382;2022-07-25T03:10:18;9.57;;;7.20;;
19386;SDS011;9829;48.142;16.382;2022-07-25T03:12:45;7.93;;;7.10;;
19386;SDS011;9829;48.142;16.382;2022-07-25T03:15:12;7.55;;;6.80;;
19386;SDS011;9829;48.142;16.382;2022-07-25T03:17:39;11.48;;;7.68;;
19386;SDS011;9829;48.142;16.382;2022-07-25T03:20:07;7.97;;;6.95;;
19386;SDS011;9829;48.142;16.382;2022-07-25T03:22:36;7.88;;;7.18;;
19386;SDS011;9829;48.142;16.382;2022-07-25T03:25:03;9.43;;;7.20;;
19386;SDS011;9829;48.142;16.382;2022-07-25T03:27:30;11.43;;;7.72;;
19386;SDS011;9829;48.142;16.382;2022-07-25T03:29:57;9.10;;;8.20;;
19386;SDS011;9829;48.142;16.382;2022-07-25T03:32:24;10.82;;;8.48;;
19386;SDS011;9829;48.142;16.382;2022-07-25T03:34:51;9.73;;;7.90;;
19386;SDS011;9829;48.142;16.382;2022-07-25T03:37:18;9.02;;;8.25;;
19386;SDS011;9829;48.142;16.382;2022-07-25T03:39:46;15.20;;;8.45;;
19386;SDS011;9829;48.142;16.382;2022-07-25T03:42:13;9.40;;;8.50;;
19386;SDS011;9829;48.142;16.382;2022-07-25T03:44:40;9.80;;;8.80;;
19386;SDS011;9829;48.142;16.382;2022-07-25T03:47:07;10.23;;;9.23;;
19386;SDS011;9829;48.142;16.382;2022-07-25T03:49:34;12.35;;;9.00;;
19386;SDS011;9829;48.142;16.382;2022-07-25T03:54:34;13.05;;;8.77;;
19386;SDS011;9829;48.142;16.382;2022-07-25T03:57:02;12.95;;;8.63;;
19386;SDS011;9829;48.142;16.382;2022-07-25T03:59:29;11.32;;;8.90;;
19386;SDS011;9829;48.142;16.382;2022-07-25T04:01:56;14.00;;;9.50;;
19386;SDS011;9829;48.142;16.382;2022-07-25T04:04:23;16.80;;;8.90;;
19386;SDS011;9829;48.142;16.382;2022-07-25T04:06:50;10.43;;;9.32;;
19386;SDS011;9829;48.142;16.382;2022-07-25T04:09:17;11.98;;;9.35;;
19386;SDS011;9829;48.142;16.382;2022-07-25T04:11:43;12.38;;;9.80;;
19386;SDS011;9829;48.142;16.382;2022-07-25T04:14:12;17.25;;;9.52;;
19386;SDS011;9829;48.142;16.382;2022-07-25T04:16:38;16.30;;;9.45;;
19386;SDS011;9829;48.142;16.382;2022-07-25T04:19:06;22.38;;;10.00;;
19386;SDS011;9829;48.142;16.382;2022-07-25T04:21:33;12.30;;;9.25;;
19386;SDS011;9829;48.142;16.382;2022-07-25T04:24:00;10.55;;;9.50;;
19386;SDS011;9829;48.142;16.382;2022-07-25T04:26:27;12.13;;;9.18;;
19386;SDS011;9829;48.142;16.382;2022-07-25T04:28:54;14.40;;;8.82;;
19386;SDS011;9829;48.142;16.382;2022-07-25T04:31:23;13.98;;;9.70;;
19386;SDS011;9829;48.142;16.382;2022-07-25T04:33:50;9.45;;;8.35;;
19386;SDS011;9829;48.142;16.382;2022-07-25T04:36:17;12.55;;;9.65;;
19386;SDS011;9829;48.142;16.382;2022-07-25T04:38:44;12.00;;;8.95;;
19386;SDS011;9829;48.142;16.382;2022-07-25T04:41:10;10.45;;;9.30;;
19386;SDS011;9829;48.142;16.382;2022-07-25T04:43:37;14.32;;;9.30;;
19386;SDS011;9829;48.142;16.382;2022-07-25T04:46:04;9.48;;;8.15;;
19386;SDS011;9829;48.142;16.382;2022-07-25T04:48:33;9.38;;;8.15;;
19386;SDS011;9829;48.142;16.382;2022-07-25T04:51:00;12.75;;;9.00;;
19386;SDS011;9829;48.142;16.382;2022-07-25T04:53:27;9.30;;;8.38;;
19386;SDS011;9829;48.142;16.382;2022-07-25T04:55:54;10.45;;;8.73;;
19386;SDS011;9829;48.142;16.382;2022-07-25T04:58:21;8.43;;;7.05;;
19386;SDS011;9829;48.142;16.382;2022-07-25T05:00:48;11.52;;;8.07;;
19386;SDS011;9829;48.142;16.382;2022-07-25T05:03:15;11.38;;;8.30;;
19386;SDS011;9829;48.142;16.382;2022-07-25T05:05:44;9.90;;;7.88;;
19386;SDS011;9829;48.142;16.382;2022-07-25T05:08:10;9.10;;;7.78;;
19386;SDS011;9829;48.142;16.382;2022-07-25T05:10:37;8.73;;;8.13;;
19386;SDS011;9829;48.142;16.382;2022-07-25T05:13:04;9.38;;;7.57;;
19386;SDS011;9829;48.142;16.382;2022-07-25T05:15:31;9.65;;;7.93;;
19386;SDS011;9829;48.142;16.382;2022-07-25T05:17:58;8.82;;;7.32;;
19386;SDS011;9829;48.142;16.382;2022-07-25T05:20:25;7.18;;;6.57;;
19386;SDS011;9829;48.142;16.382;2022-07-25T05:22:53;8.07;;;6.63;;
19386;SDS011;9829;48.142;16.382;2022-07-25T05:25:20;9.95;;;6.95;;
19386;SDS011;9829;48.142;16.382;2022-07-25T05:27:47;8.38;;;7.22;;
19386;SDS011;9829;48.142;16.382;2022-07-25T05:30:15;8.07;;;7.38;;
19386;SDS011;9829;48.142;16.382;2022-07-25T05:32:42;7.38;;;6.78;;
19386;SDS011;9829;48.142;16.382;2022-07-25T05:35:09;7.43;;;6.45;;
19386;SDS011;9829;48.142;16.382;2022-07-25T05:37:36;6.45;;;6.00;;
19386;SDS011;9829;48.142;16.382;2022-07-25T05:40:05;7.10;;;6.40;;
19386;SDS011;9829;48.142;16.382;2022-07-25T05:42:33;9.70;;;5.70;;
19386;SDS011;9829;48.142;16.382;2022-07-25T05:45:00;10.10;;;5.90;;
19386;SDS011;9829;48.142;16.382;2022-07-25T05:47:27;8.30;;;6.32;;
19386;SDS011;9829;48.142;16.382;2022-07-25T05:49:54;6.40;;;5.90;;
19386;SDS011;9829;48.142;16.382;2022-07-25T05:52:21;6.88;;;5.75;;
19386;SDS011;9829;48.142;16.382;2022-07-25T05:54:48;6.70;;;6.10;;
19386;SDS011;9829;48.142;16.382;2022-07-25T05:57:16;6.05;;;5.63;;
19386;SDS011;9829;48.142;16.382;2022-07-25T05:59:43;8.38;;;6.30;;
19386;SDS011;9829;48.142;16.382;2022-07-25T06:02:10;7.07;;;5.43;;
19386;SDS011;9829;48.142;16.382;2022-07-25T06:04:37;6.45;;;5.47;;
19386;SDS011;9829;48.142;16.382;2022-07-25T06:07:04;8.27;;;4.85;;
19386;SDS011;9829;48.142;16.382;2022-07-25T06:09:31;5.22;;;4.85;;
19386;SDS011;9829;48.142;16.382;2022-07-25T06:11:58;7.35;;;4.95;;
19386;SDS011;9829;48.142;16.382;2022-07-25T06:14:26;6.32;;;4.72;;
19386;SDS011;9829;48.142;16.382;2022-07-25T06:16:53;10.65;;;5.05;;
19386;SDS011;9829;48.142;16.382;2022-07-25T06:19:20;4.78;;;4.40;;
19386;SDS011;9829;48.142;16.382;2022-07-25T06:21:47;9.07;;;4.45;;
19386;SDS011;9829;48.142;16.382;2022-07-25T06:24:14;7.55;;;4.00;;
19386;SDS011;9829;48.142;16.382;2022-07-25T06:26:41;10.40;;;4.43;;
19386;SDS011;9829;48.142;16.382;2022-07-25T06:29:08;5.85;;;3.75;;
19386;SDS011;9829;48.142;16.382;2022-07-25T06:31:36;6.55;;;4.35;;
19386;SDS011;9829;48.142;16.382;2022-07-25T06:34:03;19.98;;;8.63;;
19386;SDS011;9829;48.142;16.382;2022-07-25T06:36:30;3.80;;;2.90;;
19386;SDS011;9829;48.142;16.382;2022-07-25T06:38:57;3.47;;;2.88;;
19386;SDS011;9829;48.142;16.382;2022-07-25T06:41:23;7.78;;;3.13;;
19386;SDS011;9829;48.142;16.382;2022-07-25T06:43:50;8.90;;;2.28;;
19386;SDS011;9829;48.142;16.382;2022-07-25T06:46:17;8.18;;;2.20;;
19386;SDS011;9829;48.142;16.382;2022-07-25T06:48:45;11.30;;;2.83;;
19386;SDS011;9829;48.142;16.382;2022-07-25T06:51:12;6.13;;;2.35;;
19386;SDS011;9829;48.142;16.382;2022-07-25T06:53:39;6.95;;;2.30;;
19386;SDS011;9829;48.142;16.382;2022-07-25T06:56:06;7.05;;;2.53;;
19386;SDS011;9829;48.142;16.382;2022-07-25T06:58:33;6.10;;;2.60;;
19386;SDS011;9829;48.142;16.382;2022-07-25T07:01:00;8.63;;;2.60;;
19386;SDS011;9829;48.142;16.382;2022-07-25T07:03:27;8.10;;;2.35;;
19386;SDS011;9829;48.142;16.382;2022-07-25T07:05:55;5.32;;;2.20;;
19386;SDS011;9829;48.142;16.382;2022-07-25T07:08:22;4.60;;;2.90;;
19386;SDS011;9829;48.142;16.382;2022-07-25T07:10:49;8.10;;;2.55;;
19386;SDS011;9829;48.142;16.382;2022-07-25T07:13:16;6.40;;;2.38;;
19386;SDS011;9829;48.142;16.382;2022-07-25T07:15:44;2.60;;;2.40;;
19386;SDS011;9829;48.142;16.382;2022-07-25T07:18:14;4.22;;;2.22;;
19386;SDS011;9829;48.142;16.382;2022-07-25T07:20:41;5.88;;;2.45;;
19386;SDS011;9829;48.142;16.382;2022-07-25T07:23:09;10.93;;;2.90;;
19386;SDS011;9829;48.142;16.382;2022-07-25T07:25:36;2.65;;;2.53;;
19386;SDS011;9829;48.142;16.382;2022-07-25T07:28:03;5.40;;;2.63;;
19386;SDS011;9829;48.142;16.382;2022-07-25T07:30:31;7.68;;;2.47;;
19386;SDS011;9829;48.142;16.382;2022-07-25T07:32:58;5.65;;;2.40;;
19386;SDS011;9829;48.142;16.382;2022-07-25T07:35:25;4.22;;;2.50;;
19386;SDS011;9829;48.142;16.382;2022-07-25T07:37:52;8.68;;;2.55;;
19386;SDS011;9829;48.142;16.382;2022-07-25T07:40:21;7.95;;;2.58;;
19386;SDS011;9829;48.142;16.382;2022-07-25T07:42:50;8.50;;;2.65;;
19386;SDS011;9829;48.142;16.382;2022-07-25T07:45:18;10.38;;;2.53;;
19386;SDS011;9829;48.142;16.382;2022-07-25T07:47:46;2.83;;;2.28;;
19386;SDS011;9829;48.142;16.382;2022-07-25T07:50:15;5.68;;;2.50;;
19386;SDS011;9829;48.142;16.382;2022-07-25T07:52:43;4.10;;;2.67;;
19386;SDS011;9829;48.142;16.382;2022-07-25T07:55:11;9.80;;;2.83;;
19386;SDS011;9829;48.142;16.382;2022-07-25T07:57:57;4.32;;;2.70;;
19386;SDS011;9829;48.142;16.382;2022-07-25T08:00:24;11.77;;;3.05;;
19386;SDS011;9829;48.142;16.382;2022-07-25T08:02:55;5.05;;;2.70;;
19386;SDS011;9829;48.142;16.382;2022-07-25T08:05:23;4.32;;;2.60;;
19386;SDS011;9829;48.142;16.382;2022-07-25T08:07:51;12.30;;;2.70;;
19386;SDS011;9829;48.142;16.382;2022-07-25T08:10:20;3.17;;;2.70;;
19386;SDS011;9829;48.142;16.382;2022-07-25T08:12:48;4.65;;;2.20;;
19386;SDS011;9829;48.142;16.382;2022-07-25T08:15:17;10.48;;;2.60;;
19386;SDS011;9829;48.142;16.382;2022-07-25T08:17:45;2.85;;;2.60;;
19386;SDS011;9829;48.142;16.382;2022-07-25T08:20:14;3.58;;;2.30;;
19386;SDS011;9829;48.142;16.382;2022-07-25T08:22:42;4.55;;;2.50;;
19386;SDS011;9829;48.142;16.382;2022-07-25T08:25:12;6.05;;;2.60;;
19386;SDS011;9829;48.142;16.382;2022-07-25T08:27:40;2.78;;;2.55;;
19386;SDS011;9829;48.142;16.382;2022-07-25T08:30:07;3.92;;;2.63;;
19386;SDS011;9829;48.142;16.382;2022-07-25T08:32:46;6.70;;;2.80;;
19386;SDS011;9829;48.142;16.382;2022-07-25T08:35:14;7.10;;;2.50;;
19386;SDS011;9829;48.142;16.382;2022-07-25T08:37:41;6.25;;;2.40;;
19386;SDS011;9829;48.142;16.382;2022-07-25T08:40:09;9.15;;;2.83;;
19386;SDS011;9829;48.142;16.382;2022-07-25T08:42:37;4.97;;;2.65;;
19386;SDS011;9829;48.142;16.382;2022-07-25T08:45:05;6.50;;;2.63;;
19386;SDS011;9829;48.142;16.382;2022-07-25T08:47:34;9.93;;;2.90;;
19386;SDS011;9829;48.142;16.382;2022-07-25T08:50:03;6.13;;;2.50;;
19386;SDS011;9829;48.142;16.382;2022-07-25T08:52:31;8.05;;;3.10;;
19386;SDS011;9829;48.142;16.382;2022-07-25T08:55:00;7.22;;;3.17;;
19386;SDS011;9829;48.142;16.382;2022-07-25T08:57:28;7.35;;;2.85;;
19386;SDS011;9829;48.142;16.382;2022-07-25T08:59:56;3.42;;;3.00;;
19386;SDS011;9829;48.142;16.382;2022-07-25T09:02:25;4.47;;;2.88;;
19386;SDS011;9829;48.142;16.382;2022-07-25T09:04:53;5.13;;;3.00;;
19386;SDS011;9829;48.142;16.382;2022-07-25T09:07:31;8.82;;;3.03;;
19386;SDS011;9829;48.142;16.382;2022-07-25T09:10:09;3.78;;;3.20;;
19386;SDS011;9829;48.142;16.382;2022-07-25T09:12:37;7.15;;;2.90;;
19386;SDS011;9829;48.142;16.382;2022-07-25T09:15:05;4.07;;;3.03;;
19386;SDS011;9829;48.142;16.382;2022-07-25T09:17:34;12.30;;;3.25;;
19386;SDS011;9829;48.142;16.382;2022-07-25T09:20:01;9.07;;;3.13;;
19386;SDS011;9829;48.142;16.382;2022-07-25T09:22:41;7.40;;;3.00;;
19386;SDS011;9829;48.142;16.382;2022-07-25T09:25:18;5.72;;;3.50;;
19386;SDS011;9829;48.142;16.382;2022-07-25T09:27:49;6.43;;;3.25;;
19386;SDS011;9829;48.142;16.382;2022-07-25T09:30:16;9.43;;;3.60;;
19386;SDS011;9829;48.142;16.382;2022-07-25T09:32:43;7.72;;;3.95;;
19386;SDS011;9829;48.142;16.382;2022-07-25T09:35:11;8.93;;;3.90;;
19386;SDS011;9829;48.142;16.382;2022-07-25T09:37:39;5.32;;;3.65;;
19386;SDS011;9829;48.142;16.382;2022-07-25T09:40:12;4.05;;;3.65;;
19386;SDS011;9829;48.142;16.382;2022-07-25T09:42:40;4.72;;;3.85;;
19386;SDS011;9829;48.142;16.382;2022-07-25T09:45:11;4.38;;;3.63;;
19386;SDS011;9829;48.142;16.382;2022-07-25T09:47:48;3.75;;;3.45;;
19386;SDS011;9829;48.142;16.382;2022-07-25T09:50:17;6.47;;;4.35;;
19386;SDS011;9829;48.142;16.382;2022-07-25T09:52:46;11.10;;;4.13;;
19386;SDS011;9829;48.142;16.382;2022-07-25T09:55:13;7.13;;;4.00;;
19386;SDS011;9829;48.142;16.382;2022-07-25T09:57:40;11.23;;;4.55;;
19386;SDS011;9829;48.142;16.382;2022-07-25T10:00:09;4.82;;;3.92;;
19386;SDS011;9829;48.142;16.382;2022-07-25T10:02:44;6.25;;;3.80;;
19386;SDS011;9829;48.142;16.382;2022-07-25T10:05:18;5.68;;;4.18;;
19386;SDS011;9829;48.142;16.382;2022-07-25T10:07:56;4.65;;;4.25;;
19386;SDS011;9829;48.142;16.382;2022-07-25T10:10:24;4.20;;;3.90;;
19386;SDS011;9829;48.142;16.382;2022-07-25T10:13:00;7.20;;;4.10;;
19386;SDS011;9829;48.142;16.382;2022-07-25T10:18:21;6.97;;;4.00;;
19386;SDS011;9829;48.142;16.382;2022-07-25T10:20:50;6.28;;;4.03;;
19386;SDS011;9829;48.142;16.382;2022-07-25T10:23:20;10.32;;;4.30;;
19386;SDS011;9829;48.142;16.382;2022-07-25T10:25:59;6.93;;;4.30;;
19386;SDS011;9829;48.142;16.382;2022-07-25T10:28:34;4.18;;;3.47;;
19386;SDS011;9829;48.142;16.382;2022-07-25T10:31:12;4.50;;;3.85;;
19386;SDS011;9829;48.142;16.382;2022-07-25T10:33:46;12.82;;;3.80;;
19386;SDS011;9829;48.142;16.382;2022-07-25T10:36:14;4.68;;;3.83;;
19386;SDS011;9829;48.142;16.382;2022-07-25T10:38:44;3.97;;;3.67;;
19386;SDS011;9829;48.142;16.382;2022-07-25T10:41:11;8.82;;;3.97;;
19386;SDS011;9829;48.142;16.382;2022-07-25T10:43:43;8.07;;;4.03;;
19386;SDS011;9829;48.142;16.382;2022-07-25T10:46:11;6.00;;;3.88;;
19386;SDS011;9829;48.142;16.382;2022-07-25T10:48:40;4.55;;;3.90;;
19386;SDS011;9829;48.142;16.382;2022-07-25T10:51:07;5.63;;;3.97;;
19386;SDS011;9829;48.142;16.382;2022-07-25T10:53:37;4.10;;;3.80;;
19386;SDS011;9829;48.142;16.382;2022-07-25T10:56:12;7.35;;;3.63;;
19386;SDS011;9829;48.142;16.382;2022-07-25T10:58:40;6.30;;;3.58;;
19386;SDS011;9829;48.142;16.382;2022-07-25T11:01:12;6.30;;;3.55;;
19386;SDS011;9829;48.142;16.382;2022-07-25T11:03:40;6.47;;;3.42;;
19386;SDS011;9829;48.142;16.382;2022-07-25T11:06:10;11.20;;;3.58;;
19386;SDS011;9829;48.142;16.382;2022-07-25T11:08:37;5.95;;;3.80;;
19386;SDS011;9829;48.142;16.382;2022-07-25T11:11:05;3.70;;;3.50;;
19386;SDS011;9829;48.142;16.382;2022-07-25T11:13:36;5.95;;;3.38;;
19386;SDS011;9829;48.142;16.382;2022-07-25T11:16:04;5.20;;;3.38;;
19386;SDS011;9829;48.142;16.382;2022-07-25T11:18:32;3.88;;;3.58;;
19386;SDS011;9829;48.142;16.382;2022-07-25T11:21:01;7.75;;;4.30;;
19386;SDS011;9829;48.142;16.382;2022-07-25T11:23:29;6.65;;;4.03;;
19386;SDS011;9829;48.142;16.382;2022-07-25T11:26:03;5.20;;;3.60;;
19386;SDS011;9829;48.142;16.382;2022-07-25T11:28:39;5.53;;;3.63;;
19386;SDS011;9829;48.142;16.382;2022-07-25T11:31:07;5.88;;;4.00;;
19386;SDS011;9829;48.142;16.382;2022-07-25T11:33:35;5.55;;;3.80;;
19386;SDS011;9829;48.142;16.382;2022-07-25T11:36:02;7.40;;;3.60;;
19386;SDS011;9829;48.142;16.382;2022-07-25T11:38:30;6.57;;;4.03;;
19386;SDS011;9829;48.142;16.382;2022-07-25T11:40:57;5.43;;;3.60;;
19386;SDS011;9829;48.142;16.382;2022-07-25T11:43:24;3.90;;;3.60;;
19386;SDS011;9829;48.142;16.382;2022-07-25T11:45:56;4.40;;;4.00;;
19386;SDS011;9829;48.142;16.382;2022-07-25T11:48:30;3.38;;;3.13;;
19386;SDS011;9829;48.142;16.382;2022-07-25T11:51:07;5.28;;;3.83;;
19386;SDS011;9829;48.142;16.382;2022-07-25T11:53:39;6.25;;;3.83;;
19386;SDS011;9829;48.142;16.382;2022-07-25T11:56:11;4.18;;;3.88;;
19386;SDS011;9829;48.142;16.382;2022-07-25T11:58:39;7.80;;;4.25;;
19386;SDS011;9829;48.142;16.382;2022-07-25T12:01:11;4.18;;;3.70;;
19386;SDS011;9829;48.142;16.382;2022-07-25T12:03:39;8.93;;;3.88;;
19386;SDS011;9829;48.142;16.382;2022-07-25T12:06:07;8.48;;;4.45;;
19386;SDS011;9829;48.142;16.382;2022-07-25T12:08:36;4.80;;;4.10;;
19386;SDS011;9829;48.142;16.382;2022-07-25T12:11:14;6.72;;;4.40;;
19386;SDS011;9829;48.142;16.382;2022-07-25T12:13:44;5.78;;;3.92;;
19386;SDS011;9829;48.142;16.382;2022-07-25T12:16:13;5.07;;;4.40;;
19386;SDS011;9829;48.142;16.382;2022-07-25T12:18:41;7.10;;;4.18;;
19386;SDS011;9829;48.142;16.382;2022-07-25T12:21:08;4.05;;;3.72;;
19386;SDS011;9829;48.142;16.382;2022-07-25T12:23:35;5.22;;;3.45;;
19386;SDS011;9829;48.142;16.382;2022-07-25T12:26:03;4.63;;;4.30;;
19386;SDS011;9829;48.142;16.382;2022-07-25T12:28:30;8.25;;;3.70;;
19386;SDS011;9829;48.142;16.382;2022-07-25T12:30:57;13.13;;;4.55;;
19386;SDS011;9829;48.142;16.382;2022-07-25T12:33:25;4.32;;;4.03;;
19386;SDS011;9829;48.142;16.382;2022-07-25T12:35:52;4.20;;;3.88;;
19386;SDS011;9829;48.142;16.382;2022-07-25T12:38:19;4.85;;;4.20;;
19386;SDS011;9829;48.142;16.382;2022-07-25T12:40:45;4.90;;;4.38;;
19386;SDS011;9829;48.142;16.382;2022-07-25T12:43:13;4.70;;;4.32;;
19386;SDS011;9829;48.142;16.382;2022-07-25T12:45:40;5.50;;;4.30;;
19386;SDS011;9829;48.142;16.382;2022-07-25T12:48:07;8.90;;;4.25;;
19386;SDS011;9829;48.142;16.382;2022-07-25T12:50:36;6.65;;;4.22;;
19386;SDS011;9829;48.142;16.382;2022-07-25T12:53:03;6.03;;;3.60;;
19386;SDS011;9829;48.142;16.382;2022-07-25T12:55:29;4.47;;;4.07;;
19386;SDS011;9829;48.142;16.382;2022-07-25T12:57:57;4.30;;;3.90;;
19386;SDS011;9829;48.142;16.382;2022-07-25T13:00:23;7.05;;;4.10;;
19386;SDS011;9829;48.142;16.382;2022-07-25T13:02:51;8.40;;;4.00;;
19386;SDS011;9829;48.142;16.382;2022-07-25T13:05:20;5.25;;;4.82;;
19386;SDS011;9829;48.142;16.382;2022-07-25T13:07:49;5.03;;;4.63;;
19386;SDS011;9829;48.142;16.382;2022-07-25T13:10:17;6.75;;;4.35;;
19386;SDS011;9829;48.142;16.382;2022-07-25T13:12:44;4.60;;;4.30;;
19386;SDS011;9829;48.142;16.382;2022-07-25T13:15:12;7.00;;;4.32;;
19386;SDS011;9829;48.142;16.382;2022-07-25T13:17:39;6.95;;;4.65;;
19386;SDS011;9829;48.142;16.382;2022-07-25T13:20:06;11.25;;;4.53;;
19386;SDS011;9829;48.142;16.382;2022-07-25T13:22:34;5.93;;;3.88;;
19386;SDS011;9829;48.142;16.382;2022-07-25T13:25:03;8.38;;;4.68;;
19386;SDS011;9829;48.142;16.382;2022-07-25T13:27:30;5.45;;;4.68;;
19386;SDS011;9829;48.142;16.382;2022-07-25T13:29:57;4.90;;;4.57;;
19386;SDS011;9829;48.142;16.382;2022-07-25T13:32:24;8.43;;;4.65;;
19386;SDS011;9829;48.142;16.382;2022-07-25T13:34:52;5.00;;;4.50;;
19386;SDS011;9829;48.142;16.382;2022-07-25T13:37:19;5.50;;;4.40;;
19386;SDS011;9829;48.142;16.382;2022-07-25T13:39:46;8.48;;;4.55;;
19386;SDS011;9829;48.142;16.382;2022-07-25T13:42:14;14.02;;;4.55;;
19386;SDS011;9829;48.142;16.382;2022-07-25T13:44:41;4.85;;;4.38;;
19386;SDS011;9829;48.142;16.382;2022-07-25T13:47:08;5.18;;;4.78;;
19386;SDS011;9829;48.142;16.382;2022-07-25T13:49:35;5.05;;;4.32;;
19386;SDS011;9829;48.142;16.382;2022-07-25T13:52:02;4.82;;;4.50;;
19386;SDS011;9829;48.142;16.382;2022-07-25T13:54:29;5.28;;;4.88;;
19386;SDS011;9829;48.142;16.382;2022-07-25T13:56:56;6.60;;;4.65;;
19386;SDS011;9829;48.142;16.382;2022-07-25T13:59:25;5.10;;;4.70;;
19386;SDS011;9829;48.142;16.382;2022-07-25T14:01:51;5.20;;;4.80;;
19386;SDS011;9829;48.142;16.382;2022-07-25T14:04:18;6.45;;;4.25;;
19386;SDS011;9829;48.142;16.382;2022-07-25T14:06:45;7.35;;;4.88;;
19386;SDS011;9829;48.142;16.382;2022-07-25T14:09:16;6.22;;;4.70;;
19386;SDS011;9829;48.142;16.382;2022-07-25T14:11:43;5.78;;;4.43;;
19386;SDS011;9829;48.142;16.382;2022-07-25T14:14:10;6.40;;;4.88;;
19386;SDS011;9829;48.142;16.382;2022-07-25T14:16:39;8.00;;;4.65;;
19386;SDS011;9829;48.142;16.382;2022-07-25T14:19:06;10.18;;;4.95;;
19386;SDS011;9829;48.142;16.382;2022-07-25T14:21:33;6.22;;;4.43;;
19386;SDS011;9829;48.142;16.382;2022-07-25T14:24:00;5.22;;;4.82;;
19386;SDS011;9829;48.142;16.382;2022-07-25T14:26:27;16.52;;;5.38;;
19386;SDS011;9829;48.142;16.382;2022-07-25T14:28:55;6.47;;;4.60;;
19386;SDS011;9829;48.142;16.382;2022-07-25T14:31:22;5.63;;;5.10;;
19386;SDS011;9829;48.142;16.382;2022-07-25T14:33:50;5.72;;;5.20;;
19386;SDS011;9829;48.142;16.382;2022-07-25T14:36:17;8.05;;;5.35;;
19386;SDS011;9829;48.142;16.382;2022-07-25T14:38:44;6.07;;;5.20;;
19386;SDS011;9829;48.142;16.382;2022-07-25T14:41:12;4.50;;;4.20;;
19386;SDS011;9829;48.142;16.382;2022-07-25T14:43:40;7.68;;;4.50;;
19386;SDS011;9829;48.142;16.382;2022-07-25T14:46:07;6.38;;;4.50;;
19386;SDS011;9829;48.142;16.382;2022-07-25T14:48:34;5.15;;;4.75;;
19386;SDS011;9829;48.142;16.382;2022-07-25T14:51:03;5.82;;;4.75;;
19386;SDS011;9829;48.142;16.382;2022-07-25T14:53:30;5.78;;;5.28;;
19386;SDS011;9829;48.142;16.382;2022-07-25T14:55:57;5.60;;;5.10;;